createdAt,value
2023-05-03T18:37:41.519Z,7.19
2023-05-03T18:42:47.669Z,18.22
2023-05-03T18:47:51.797Z,18.08
2023-05-03T18:52:55.772Z,17.91
2023-05-03T18:58:02.992Z,17.74
2023-05-03T19:03:08.508Z,17.57
2023-05-03T19:08:12.883Z,17.39
2023-05-03T19:13:19.077Z,17.22
2023-05-03T19:18:23.890Z,17.04
2023-05-03T19:23:28.559Z,16.89
2023-05-03T19:28:34.551Z,16.75
2023-05-03T19:33:38.778Z,16.61
2023-05-03T19:38:42.806Z,16.51
2023-05-03T19:43:49.050Z,16.40
2023-05-03T19:48:53.214Z,16.27
2023-05-03T19:53:57.610Z,16.15
2023-05-03T19:59:03.569Z,16.04
2023-05-03T20:04:07.669Z,15.93
2023-05-03T20:09:12.373Z,15.83
2023-05-03T20:14:18.281Z,15.74
2023-05-03T20:19:22.911Z,15.62
2023-05-03T20:24:27.182Z,15.50
2023-05-03T20:29:33.858Z,15.38
2023-05-03T20:34:39.628Z,15.25
2023-05-03T20:39:43.579Z,15.16
2023-05-03T20:44:51.207Z,15.04
2023-05-03T20:49:55.339Z,14.91
2023-05-03T20:54:59.370Z,14.78
2023-05-03T21:00:06.594Z,14.67
2023-05-03T21:05:12.127Z,14.54
2023-05-03T21:10:16.712Z,14.41
2023-05-03T21:15:22.954Z,14.32
2023-05-03T21:20:26.895Z,14.21
2023-05-03T21:25:31.055Z,14.12
2023-05-03T21:30:37.610Z,14.02
2023-05-03T21:35:41.699Z,13.91
2023-05-03T21:40:46.729Z,13.81
2023-05-03T21:50:58.338Z,13.60
2023-05-03T21:56:02.459Z,13.50
2023-05-03T22:01:09.392Z,13.40
2023-05-03T22:06:13.539Z,13.29
2023-05-03T22:11:17.497Z,13.18
2023-05-03T22:16:23.608Z,13.10
2023-05-03T22:21:27.576Z,12.99
2023-05-03T22:26:31.699Z,12.90
2023-05-03T22:31:37.544Z,12.81
